sensor_id;sensor_type;location;lat;lon;timestamp;pressure;altitude;pressure_sealevel;temperature;humidity
26978;BME280;56314;48.088;11.642;2024-01-06T00:00:16;94145.50;;;4.53;100.00
26978;BME280;56314;48.088;11.642;2024-01-06T00:02:41;94151.63;;;4.52;100.00
26978;BME280;56314;48.088;11.642;2024-01-06T00:05:07;94153.41;;;4.52;100.00
26978;BME280;56314;48.088;11.642;2024-01-06T00:07:32;94159.44;;;4.52;100.00
26978;BME280;56314;48.088;11.642;2024-01-06T00:09:58;94156.75;;;4.54;100.00
26978;BME280;56314;48.088;11.642;2024-01-06T00:12:23;94152.34;;;4.54;100.00
26978;BME280;56314;48.088;11.642;2024-01-06T00:14:48;94153.19;;;4.55;100.00
26978;BME280;56314;48.088;11.642;2024-01-06T00:17:15;94142.69;;;4.56;100.00
26978;BME280;56314;48.088;11.642;2024-01-06T00:19:40;94142.25;;;4.62;100.00
26978;BME280;56314;48.088;11.642;2024-01-06T00:22:06;94143.63;;;4.55;100.00
26978;BME280;56314;48.088;11.642;2024-01-06T00:24:31;94140.91;;;4.57;100.00
26978;BME280;56314;48.088;11.642;2024-01-06T00:26:56;94142.56;;;4.58;100.00
26978;BME280;56314;48.088;11.642;2024-01-06T00:29:22;94136.75;;;4.54;100.00
26978;BME280;56314;48.088;11.642;2024-01-06T00:31:47;94140.19;;;4.55;100.00
26978;BME280;56314;48.088;11.642;2024-01-06T00:34:13;94134.16;;;4.54;100.00
26978;BME280;56314;48.088;11.642;2024-01-06T00:36:38;94137.69;;;4.53;100.00
26978;BME280;56314;48.088;11.642;2024-01-06T00:39:03;94137.69;;;4.53;100.00
26978;BME280;56314;48.088;11.642;2024-01-06T00:41:29;94139.56;;;4.51;100.00
26978;BME280;56314;48.088;11.642;2024-01-06T00:43:55;94139.56;;;4.51;100.00
26978;BME280;56314;48.088;11.642;2024-01-06T00:46:20;94137.94;;;4.50;100.00
26978;BME280;56314;48.088;11.642;2024-01-06T00:48:45;94142.41;;;4.48;100.00
26978;BME280;56314;48.088;11.642;2024-01-06T00:51:11;94132.13;;;4.46;100.00
26978;BME280;56314;48.088;11.642;2024-01-06T00:53:36;94134.03;;;4.44;100.00
26978;BME280;56314;48.088;11.642;2024-01-06T00:56:02;94133.19;;;4.44;100.00
26978;BME280;56314;48.088;11.642;2024-01-06T00:58:27;94134.13;;;4.43;100.00
26978;BME280;56314;48.088;11.642;2024-01-06T01:00:53;94136.72;;;4.43;100.00
26978;BME280;56314;48.088;11.642;2024-01-06T01:03:18;94137.19;;;4.37;100.00
26978;BME280;56314;48.088;11.642;2024-01-06T01:05:43;94138.00;;;4.37;100.00
26978;BME280;56314;48.088;11.642;2024-01-06T01:08:09;94145.06;;;4.35;100.00
26978;BME280;56314;48.088;11.642;2024-01-06T01:10:34;94133.13;;;4.32;100.00
26978;BME280;56314;48.088;11.642;2024-01-06T01:13:00;94141.66;;;4.35;100.00
26978;BME280;56314;48.088;11.642;2024-01-06T01:15:25;94139.25;;;4.31;100.00
26978;BME280;56314;48.088;11.642;2024-01-06T01:17:50;94146.25;;;4.31;100.00
26978;BME280;56314;48.088;11.642;2024-01-06T01:20:16;94136.53;;;4.33;100.00
26978;BME280;56314;48.088;11.642;2024-01-06T01:22:41;94141.13;;;4.29;100.00
26978;BME280;56314;48.088;11.642;2024-01-06T01:25:07;94144.69;;;4.28;100.00
26978;BME280;56314;48.088;11.642;2024-01-06T01:27:33;94144.81;;;4.27;100.00
26978;BME280;56314;48.088;11.642;2024-01-06T01:29:58;94137.00;;;4.27;100.00
26978;BME280;56314;48.088;11.642;2024-01-06T01:32:24;94144.06;;;4.25;100.00
26978;BME280;56314;48.088;11.642;2024-01-06T01:34:49;94148.94;;;4.29;100.00
26978;BME280;56314;48.088;11.642;2024-01-06T01:37:15;94151.06;;;4.24;100.00
26978;BME280;56314;48.088;11.642;2024-01-06T01:39:41;94148.66;;;4.21;100.00
26978;BME280;56314;48.088;11.642;2024-01-06T01:42:06;94149.50;;;4.22;100.00
26978;BME280;56314;48.088;11.642;2024-01-06T01:44:31;94147.00;;;4.20;100.00
26978;BME280;56314;48.088;11.642;2024-01-06T01:46:57;94147.22;;;4.17;100.00
26978;BME280;56314;48.088;11.642;2024-01-06T01:49:23;94157.75;;;4.15;100.00
26978;BME280;56314;48.088;11.642;2024-01-06T01:51:48;94157.63;;;4.17;100.00
26978;BME280;56314;48.088;11.642;2024-01-06T01:54:15;94160.22;;;4.17;100.00
26978;BME280;56314;48.088;11.642;2024-01-06T01:56:41;94158.56;;;4.16;100.00
26978;BME280;56314;48.088;11.642;2024-01-06T01:59:11;94160.47;;;4.14;100.00
26978;BME280;56314;48.088;11.642;2024-01-06T02:01:37;94150.16;;;4.12;100.00
26978;BME280;56314;48.088;11.642;2024-01-06T02:04:03;94152.53;;;4.15;100.00
26978;BME280;56314;48.088;11.642;2024-01-06T02:06:28;94155.75;;;4.19;100.00
26978;BME280;56314;48.088;11.642;2024-01-06T02:08:53;94160.13;;;4.19;100.00
26978;BME280;56314;48.088;11.642;2024-01-06T02:11:19;94166.13;;;4.19;100.00
26978;BME280;56314;48.088;11.642;2024-01-06T02:13:44;94157.53;;;4.19;100.00
26978;BME280;56314;48.088;11.642;2024-01-06T02:16:10;94161.66;;;4.21;100.00
26978;BME280;56314;48.088;11.642;2024-01-06T02:18:35;94159.19;;;4.20;100.00
26978;BME280;56314;48.088;11.642;2024-01-06T02:21:01;94157.28;;;4.22;100.00
26978;BME280;56314;48.088;11.642;2024-01-06T02:23:28;94156.34;;;4.23;100.00
26978;BME280;56314;48.088;11.642;2024-01-06T02:25:53;94159.78;;;4.23;100.00
26978;BME280;56314;48.088;11.642;2024-01-06T02:28:19;94161.66;;;4.21;100.00
26978;BME280;56314;48.088;11.642;2024-01-06T02:30:45;94169.34;;;4.23;100.00
26978;BME280;56314;48.088;11.642;2024-01-06T02:33:10;94155.41;;;4.24;100.00
26978;BME280;56314;48.088;11.642;2024-01-06T02:35:36;94164.47;;;4.18;100.00
26978;BME280;56314;48.088;11.642;2024-01-06T02:38:01;94167.06;;;4.18;100.00
26978;BME280;56314;48.088;11.642;2024-01-06T02:40:27;94170.41;;;4.20;100.00
26978;BME280;56314;48.088;11.642;2024-01-06T02:42:52;94168.13;;;4.15;100.00
26978;BME280;56314;48.088;11.642;2024-01-06T02:45:18;94168.25;;;4.14;100.00
26978;BME280;56314;48.088;11.642;2024-01-06T02:47:43;94171.06;;;4.11;100.00
26978;BME280;56314;48.088;11.642;2024-01-06T02:50:09;94168.34;;;4.12;100.00
26978;BME280;56314;48.088;11.642;2024-01-06T02:52:34;94174.59;;;4.10;100.00
26978;BME280;56314;48.088;11.642;2024-01-06T02:54:59;94180.13;;;4.05;100.00
26978;BME280;56314;48.088;11.642;2024-01-06T02:57:27;94178.47;;;4.04;100.00
26978;BME280;56314;48.088;11.642;2024-01-06T02:59:52;94186.25;;;4.04;100.00
26978;BME280;56314;48.088;11.642;2024-01-06T03:02:18;94183.13;;;3.99;100.00
26978;BME280;56314;48.088;11.642;2024-01-06T03:04:43;94177.94;;;3.99;100.00
26978;BME280;56314;48.088;11.642;2024-01-06T03:07:08;94170.16;;;3.99;100.00
26978;BME280;56314;48.088;11.642;2024-01-06T03:09:34;94175.59;;;3.96;100.00
26978;BME280;56314;48.088;11.642;2024-01-06T03:11:59;94177.63;;;4.04;100.00
26978;BME280;56314;48.088;11.642;2024-01-06T03:14:25;94176.53;;;3.95;100.00
26978;BME280;56314;48.088;11.642;2024-01-06T03:16:50;94181.00;;;3.93;100.00
26978;BME280;56314;48.088;11.642;2024-01-06T03:19:15;94184.53;;;3.92;100.00
26978;BME280;56314;48.088;11.642;2024-01-06T03:21:41;94191.91;;;3.85;100.00
26978;BME280;56314;48.088;11.642;2024-01-06T03:24:07;94189.53;;;3.82;100.00
26978;BME280;56314;48.088;11.642;2024-01-06T03:26:32;94192.72;;;3.85;100.00
26978;BME280;56314;48.088;11.642;2024-01-06T03:28:58;94192.13;;;3.82;100.00
26978;BME280;56314;48.088;11.642;2024-01-06T03:31:24;94189.13;;;3.75;100.00
26978;BME280;56314;48.088;11.642;2024-01-06T03:33:50;94194.22;;;3.77;100.00
26978;BME280;56314;48.088;11.642;2024-01-06T03:36:16;94198.56;;;3.76;100.00
26978;BME280;56314;48.088;11.642;2024-01-06T03:38:42;94186.94;;;3.82;100.00
26978;BME280;56314;48.088;11.642;2024-01-06T03:41:07;94188.59;;;3.83;100.00
26978;BME280;56314;48.088;11.642;2024-01-06T03:43:33;94189.31;;;3.85;100.00
26978;BME280;56314;48.088;11.642;2024-01-06T03:45:58;94182.34;;;3.85;100.00
26978;BME280;56314;48.088;11.642;2024-01-06T03:48:25;94192.03;;;3.83;100.00
26978;BME280;56314;48.088;11.642;2024-01-06T03:50:50;94190.44;;;3.81;100.00
26978;BME280;56314;48.088;11.642;2024-01-06T03:53:16;94191.19;;;3.83;100.00
26978;BME280;56314;48.088;11.642;2024-01-06T03:55:41;94191.38;;;3.80;100.00
26978;BME280;56314;48.088;11.642;2024-01-06T03:58:06;94195.88;;;3.78;100.00
26978;BME280;56314;48.088;11.642;2024-01-06T04:00:32;94189.03;;;3.77;100.00
26978;BME280;56314;48.088;11.642;2024-01-06T04:02:57;94191.63;;;3.77;100.00
26978;BME280;56314;48.088;11.642;2024-01-06T04:05:22;94194.31;;;3.75;100.00
26978;BME280;56314;48.088;11.642;2024-01-06T04:07:48;94195.25;;;3.74;100.00
26978;BME280;56314;48.088;11.642;2024-01-06T04:10:14;94203.88;;;3.75;100.00
26978;BME280;56314;48.088;11.642;2024-01-06T04:12:39;94201.38;;;3.73;100.00
26978;BME280;56314;48.088;11.642;2024-01-06T04:15:05;94197.63;;;3.77;100.00
26978;BME280;56314;48.088;11.642;2024-01-06T04:17:30;94210.63;;;3.77;100.00
26978;BME280;56314;48.088;11.642;2024-01-06T04:19:55;94218.72;;;3.73;100.00
26978;BME280;56314;48.088;11.642;2024-01-06T04:22:21;94225.91;;;3.69;100.00
26978;BME280;56314;48.088;11.642;2024-01-06T04:24:47;94223.31;;;3.69;100.00
26978;BME280;56314;48.088;11.642;2024-01-06T04:27:12;94228.72;;;3.66;100.00
26978;BME280;56314;48.088;11.642;2024-01-06T04:29:38;94220.91;;;3.66;100.00
26978;BME280;56314;48.088;11.642;2024-01-06T04:32:04;94225.38;;;3.64;100.00
26978;BME280;56314;48.088;11.642;2024-01-06T04:34:30;94226.22;;;3.64;100.00
26978;BME280;56314;48.088;11.642;2024-01-06T04:36:55;94225.63;;;3.61;100.00
26978;BME280;56314;48.088;11.642;2024-01-06T04:39:21;94224.66;;;3.62;100.00
26978;BME280;56314;48.088;11.642;2024-01-06T04:41:46;94224.88;;;3.59;100.00
26978;BME280;56314;48.088;11.642;2024-01-06T04:44:11;94228.59;;;3.54;100.00
26978;BME280;56314;48.088;11.642;2024-01-06T04:46:37;94227.56;;;3.57;100.00
26978;BME280;56314;48.088;11.642;2024-01-06T04:49:02;94227.69;;;3.56;100.00
26978;BME280;56314;48.088;11.642;2024-01-06T04:51:27;94230.47;;;3.52;100.00
26978;BME280;56314;48.088;11.642;2024-01-06T04:53:53;94236.09;;;3.46;100.00
26978;BME280;56314;48.088;11.642;2024-01-06T04:56:18;94242.31;;;3.44;100.00
26978;BME280;56314;48.088;11.642;2024-01-06T04:58:44;94243.28;;;3.43;100.00
26978;BME280;56314;48.088;11.642;2024-01-06T05:01:09;94241.81;;;3.38;100.00
26978;BME280;56314;48.088;11.642;2024-01-06T05:03:35;94255.59;;;3.39;100.00
26978;BME280;56314;48.088;11.642;2024-01-06T05:06:00;94254.84;;;3.37;100.00
26978;BME280;56314;48.088;11.642;2024-01-06T05:08:25;94253.72;;;3.41;100.00
26978;BME280;56314;48.088;11.642;2024-01-06T05:10:52;94258.31;;;3.37;100.00
26978;BME280;56314;48.088;11.642;2024-01-06T05:13:17;94254.25;;;3.33;100.00
26978;BME280;56314;48.088;11.642;2024-01-06T05:15:43;94259.34;;;3.35;100.00
26978;BME280;56314;48.088;11.642;2024-01-06T05:18:08;94271.06;;;3.28;100.00
26978;BME280;56314;48.088;11.642;2024-01-06T05:20:33;94265.34;;;3.22;100.00
26978;BME280;56314;48.088;11.642;2024-01-06T05:22:59;94270.44;;;3.24;100.00
26978;BME280;56314;48.088;11.642;2024-01-06T05:25:24;94271.06;;;3.28;100.00
26978;BME280;56314;48.088;11.642;2024-01-06T05:27:49;94269.94;;;3.32;100.00
26978;BME280;56314;48.088;11.642;2024-01-06T05:30:15;94270.84;;;3.31;100.00
26978;BME280;56314;48.088;11.642;2024-01-06T05:32:40;94266.78;;;3.27;100.00
26978;BME280;56314;48.088;11.642;2024-01-06T05:35:06;94274.91;;;3.35;100.00
26978;BME280;56314;48.088;11.642;2024-01-06T05:37:32;94272.53;;;3.32;100.00
26978;BME280;56314;48.088;11.642;2024-01-06T05:39:57;94274.25;;;3.31;100.00
26978;BME280;56314;48.088;11.642;2024-01-06T05:42:26;94283.72;;;3.32;100.00
26978;BME280;56314;48.088;11.642;2024-01-06T05:44:52;94292.53;;;3.30;100.00
26978;BME280;56314;48.088;11.642;2024-01-06T05:47:17;94288.81;;;3.34;100.00
26978;BME280;56314;48.088;11.642;2024-01-06T05:49:43;94289.13;;;3.29;100.00
26978;BME280;56314;48.088;11.642;2024-01-06T05:52:11;94298.47;;;3.32;100.00
26978;BME280;56314;48.088;11.642;2024-01-06T05:54:40;94303.47;;;3.35;100.00
26978;BME280;56314;48.088;11.642;2024-01-06T05:57:06;94306.13;;;3.33;100.00
26978;BME280;56314;48.088;11.642;2024-01-06T05:59:35;94309.59;;;3.34;100.00
26978;BME280;56314;48.088;11.642;2024-01-06T06:02:01;94313.84;;;3.35;100.00
26978;BME280;56314;48.088;11.642;2024-01-06T06:04:26;94315.59;;;3.34;100.00
26978;BME280;56314;48.088;11.642;2024-01-06T06:06:51;94324.22;;;3.35;100.00
26978;BME280;56314;48.088;11.642;2024-01-06T06:09:17;94328.97;;;3.28;100.00
26978;BME280;56314;48.088;11.642;2024-01-06T06:11:42;94330.84;;;3.26;100.00
26978;BME280;56314;48.088;11.642;2024-01-06T06:14:08;94336.03;;;3.26;100.00
26978;BME280;56314;48.088;11.642;2024-01-06T06:16:34;94343.94;;;3.25;100.00
26978;BME280;56314;48.088;11.642;2024-01-06T06:18:59;94343.19;;;3.22;100.00
26978;BME280;56314;48.088;11.642;2024-01-06T06:21:24;94339.75;;;3.22;100.00
26978;BME280;56314;48.088;11.642;2024-01-06T06:23:50;94346.72;;;3.21;100.00
26978;BME280;56314;48.088;11.642;2024-01-06T06:26:15;94348.56;;;3.19;100.00
26978;BME280;56314;48.088;11.642;2024-01-06T06:28:41;94354.50;;;3.21;100.00
26978;BME280;56314;48.088;11.642;2024-01-06T06:31:07;94357.81;;;3.23;100.00
26978;BME280;56314;48.088;11.642;2024-01-06T06:33:32;94355.13;;;3.25;100.00
26978;BME280;56314;48.088;11.642;2024-01-06T06:35:58;94354.69;;;3.18;100.00
26978;BME280;56314;48.088;11.642;2024-01-06T06:38:25;94360.19;;;3.14;100.00
26978;BME280;56314;48.088;11.642;2024-01-06T06:40:50;94367.75;;;3.17;100.00
26978;BME280;56314;48.088;11.642;2024-01-06T06:43:16;94373.66;;;3.19;100.00
26978;BME280;56314;48.088;11.642;2024-01-06T06:45:41;94373.59;;;3.20;100.00
26978;BME280;56314;48.088;11.642;2024-01-06T06:48:07;94367.66;;;3.18;100.00
26978;BME280;56314;48.088;11.642;2024-01-06T06:50:32;94360.06;;;3.15;100.00
26978;BME280;56314;48.088;11.642;2024-01-06T06:52:58;94367.03;;;3.15;100.00
26978;BME280;56314;48.088;11.642;2024-01-06T06:55:24;94375.94;;;3.11;100.00
26978;BME280;56314;48.088;11.642;2024-01-06T06:57:49;94371.66;;;3.10;100.00
26978;BME280;56314;48.088;11.642;2024-01-06T07:00:15;94369.06;;;3.10;100.00
26978;BME280;56314;48.088;11.642;2024-01-06T07:02:41;94373.34;;;3.11;100.00
26978;BME280;56314;48.088;11.642;2024-01-06T07:05:06;94377.78;;;3.08;100.00
26978;BME280;56314;48.088;11.642;2024-01-06T07:07:33;94378.81;;;3.06;100.00
26978;BME280;56314;48.088;11.642;2024-01-06T07:10:00;94378.00;;;3.05;100.00
26978;BME280;56314;48.088;11.642;2024-01-06T07:12:26;94381.53;;;3.04;100.00
26978;BME280;56314;48.088;11.642;2024-01-06T07:14:52;94376.34;;;3.04;100.00
26978;BME280;56314;48.088;11.642;2024-01-06T07:17:18;94387.34;;;3.08;100.00
26978;BME280;56314;48.088;11.642;2024-01-06T07:19:43;94387.34;;;3.08;100.00
26978;BME280;56314;48.088;11.642;2024-01-06T07:22:08;94390.75;;;3.08;100.00
26978;BME280;56314;48.088;11.642;2024-01-06T07:24:34;94390.97;;;3.05;100.00
26978;BME280;56314;48.088;11.642;2024-01-06T07:27:01;94394.78;;;3.00;100.00
26978;BME280;56314;48.088;11.642;2024-01-06T07:29:28;94395.72;;;2.99;100.00
26978;BME280;56314;48.088;11.642;2024-01-06T07:31:53;94393.41;;;2.94;100.00
26978;BME280;56314;48.088;11.642;2024-01-06T07:34:19;94400.97;;;2.97;100.00
26978;BME280;56314;48.088;11.642;2024-01-06T07:36:44;94398.31;;;2.99;100.00
26978;BME280;56314;48.088;11.642;2024-01-06T07:39:09;94398.31;;;2.99;100.00
26978;BME280;56314;48.088;11.642;2024-01-06T07:41:35;94405.16;;;3.00;100.00
26978;BME280;56314;48.088;11.642;2024-01-06T07:44:00;94407.53;;;3.03;100.00
26978;BME280;56314;48.088;11.642;2024-01-06T07:46:27;94415.25;;;3.04;100.00
26978;BME280;56314;48.088;11.642;2024-01-06T07:48:53;94421.88;;;3.08;100.00
26978;BME280;56314;48.088;11.642;2024-01-06T07:51:18;94424.59;;;3.07;100.00
26978;BME280;56314;48.088;11.642;2024-01-06T07:53:44;94440.97;;;3.07;100.00
26978;BME280;56314;48.088;11.642;2024-01-06T07:56:09;94432.91;;;3.12;100.00
26978;BME280;56314;48.088;11.642;2024-01-06T07:58:34;94434.56;;;3.13;100.00
26978;BME280;56314;48.088;11.642;2024-01-06T08:01:00;94433.56;;;3.16;100.00
26978;BME280;56314;48.088;11.642;2024-01-06T08:03:26;94444.66;;;3.18;100.00
26978;BME280;56314;48.088;11.642;2024-01-06T08:05:52;94436.03;;;3.17;100.00
26978;BME280;56314;48.088;11.642;2024-01-06T08:08:17;94446.41;;;3.17;100.00
26978;BME280;56314;48.088;11.642;2024-01-06T08:10:44;94447.63;;;3.12;100.00
26978;BME280;56314;48.088;11.642;2024-01-06T08:13:09;94450.97;;;3.14;100.00
26978;BME280;56314;48.088;11.642;2024-01-06T08:15:34;94445.78;;;3.14;100.00
26978;BME280;56314;48.088;11.642;2024-01-06T08:18:00;94453.00;;;3.08;100.00
26978;BME280;56314;48.088;11.642;2024-01-06T08:20:25;94442.94;;;3.04;100.00
26978;BME280;56314;48.088;11.642;2024-01-06T08:22:51;94451.25;;;3.09;100.00
26978;BME280;56314;48.088;11.642;2024-01-06T08:25:16;94453.13;;;3.07;100.00
26978;BME280;56314;48.088;11.642;2024-01-06T08:27:45;94456.53;;;3.07;100.00
26978;BME280;56314;48.088;11.642;2024-01-06T08:30:11;94454.50;;;3.13;100.00
26978;BME280;56314;48.088;11.642;2024-01-06T08:32:37;94453.28;;;3.18;100.00
26978;BME280;56314;48.088;11.642;2024-01-06T08:35:03;94451.59;;;3.17;100.00
26978;BME280;56314;48.088;11.642;2024-01-06T08:37:29;94454.00;;;3.20;100.00
26978;BME280;56314;48.088;11.642;2024-01-06T08:39:55;94455.69;;;3.21;100.00
26978;BME280;56314;48.088;11.642;2024-01-06T08:42:20;94460.56;;;3.26;100.00
26978;BME280;56314;48.088;11.642;2024-01-06T08:44:45;94461.31;;;3.28;100.00
26978;BME280;56314;48.088;11.642;2024-01-06T08:47:11;94468.69;;;3.34;100.00
26978;BME280;56314;48.088;11.642;2024-01-06T08:49:37;94458.25;;;3.36;100.00
26978;BME280;56314;48.088;11.642;2024-01-06T08:52:03;94457.38;;;3.35;100.00
26978;BME280;56314;48.088;11.642;2024-01-06T08:54:28;94467.13;;;3.32;100.00
26978;BME280;56314;48.088;11.642;2024-01-06T08:56:54;94467.94;;;3.32;100.00
26978;BME280;56314;48.088;11.642;2024-01-06T08:59:20;94468.31;;;3.41;100.00
26978;BME280;56314;48.088;11.642;2024-01-06T09:01:45;94469.63;;;3.33;100.00
26978;BME280;56314;48.088;11.642;2024-01-06T09:04:11;94471.78;;;3.27;100.00
26978;BME280;56314;48.088;11.642;2024-01-06T09:06:38;94479.56;;;3.27;100.00
26978;BME280;56314;48.088;11.642;2024-01-06T09:09:03;94482.59;;;3.33;100.00
26978;BME280;56314;48.088;11.642;2024-01-06T09:11:28;94483.81;;;3.28;100.00
26978;BME280;56314;48.088;11.642;2024-01-06T09:13:54;94478.63;;;3.28;100.00
26978;BME280;56314;48.088;11.642;2024-01-06T09:16:19;94484.66;;;3.28;100.00
26978;BME280;56314;48.088;11.642;2024-01-06T09:18:45;94481.34;;;3.26;100.00
26978;BME280;56314;48.088;11.642;2024-01-06T09:21:10;94485.03;;;3.22;100.00
26978;BME280;56314;48.088;11.642;2024-01-06T09:23:36;94484.28;;;3.20;100.00
26978;BME280;56314;48.088;11.642;2024-01-06T09:26:01;94482.25;;;3.25;100.00
26978;BME280;56314;48.088;11.642;2024-01-06T09:28:27;94481.50;;;3.23;100.00
26978;BME280;56314;48.088;11.642;2024-01-06T09:30:53;94480.88;;;3.19;100.00
26978;BME280;56314;48.088;11.642;2024-01-06T09:33:21;94487.00;;;3.18;100.00
26978;BME280;56314;48.088;11.642;2024-01-06T09:35:47;94486.19;;;3.18;100.00
26978;BME280;56314;48.088;11.642;2024-01-06T09:38:12;94485.44;;;3.16;100.00
26978;BME280;56314;48.088;11.642;2024-01-06T09:40:42;94491.56;;;3.15;100.00
26978;BME280;56314;48.088;11.642;2024-01-06T09:43:11;94490.53;;;3.17;100.00
26978;BME280;56314;48.088;11.642;2024-01-06T09:45:37;94506.81;;;3.19;100.00
26978;BME280;56314;48.088;11.642;2024-01-06T09:48:12;94501.75;;;3.18;100.00
26978;BME280;56314;48.088;11.642;2024-01-06T09:50:42;94510.06;;;3.23;100.00
26978;BME280;56314;48.088;11.642;2024-01-06T09:53:11;94502.56;;;3.18;100.00
26978;BME280;56314;48.088;11.642;2024-01-06T09:55:37;94502.28;;;3.23;100.00
26978;BME280;56314;48.088;11.642;2024-01-06T09:58:04;94507.84;;;3.17;100.00
26978;BME280;56314;48.088;11.642;2024-01-06T10:00:31;94503.66;;;3.14;100.00
26978;BME280;56314;48.088;11.642;2024-01-06T10:02:56;94505.56;;;3.12;100.00
26978;BME280;56314;48.088;11.642;2024-01-06T10:05:23;94505.25;;;3.17;100.00
26978;BME280;56314;48.088;11.642;2024-01-06T10:07:48;94503.59;;;3.16;100.00
26978;BME280;56314;48.088;11.642;2024-01-06T10:10:14;94508.69;;;3.17;100.00
26978;BME280;56314;48.088;11.642;2024-01-06T10:12:41;94507.94;;;3.15;100.00
26978;BME280;56314;48.088;11.642;2024-01-06T10:15:08;94508.69;;;3.17;100.00
26978;BME280;56314;48.088;11.642;2024-01-06T10:17:41;94503.59;;;3.16;100.00
26978;BME280;56314;48.088;11.642;2024-01-06T10:20:11;94502.66;;;3.17;100.00
26978;BME280;56314;48.088;11.642;2024-01-06T10:22:38;94494.97;;;3.15;100.00
26978;BME280;56314;48.088;11.642;2024-01-06T10:25:06;94488.56;;;3.21;100.00
26978;BME280;56314;48.088;11.642;2024-01-06T10:27:37;94490.34;;;3.20;100.00
26978;BME280;56314;48.088;11.642;2024-01-06T10:30:03;94486.81;;;3.21;100.00
26978;BME280;56314;48.088;11.642;2024-01-06T10:32:33;94486.72;;;3.23;100.00
26978;BME280;56314;48.088;11.642;2024-01-06T10:35:00;94481.34;;;3.26;100.00
26978;BME280;56314;48.088;11.642;2024-01-06T10:37:26;94484.75;;;3.27;100.00
26978;BME280;56314;48.088;11.642;2024-01-06T10:40:12;94485.88;;;3.22;100.00
26978;BME280;56314;48.088;11.642;2024-01-06T10:42:38;94491.53;;;3.29;100.00
26978;BME280;56314;48.088;11.642;2024-01-06T10:45:09;94494.19;;;3.28;100.00
26978;BME280;56314;48.088;11.642;2024-01-06T10:47:35;94493.19;;;3.30;100.00
26978;BME280;56314;48.088;11.642;2024-01-06T10:50:01;94484.56;;;3.30;100.00
26978;BME280;56314;48.088;11.642;2024-01-06T10:52:27;94480.22;;;3.30;100.00
26978;BME280;56314;48.088;11.642;2024-01-06T10:54:57;94473.69;;;3.37;100.00
26978;BME280;56314;48.088;11.642;2024-01-06T10:57:23;94466.84;;;3.36;100.00
26978;BME280;56314;48.088;11.642;2024-01-06T10:59:52;94470.63;;;3.45;100.00
26978;BME280;56314;48.088;11.642;2024-01-06T11:02:18;94463.34;;;3.50;100.00
26978;BME280;56314;48.088;11.642;2024-01-06T11:04:47;94465.88;;;3.52;100.00
26978;BME280;56314;48.088;11.642;2024-01-06T11:07:15;94475.50;;;3.50;100.00
26978;BME280;56314;48.088;11.642;2024-01-06T11:09:48;94476.34;;;3.50;100.00
26978;BME280;56314;48.088;11.642;2024-01-06T11:12:16;94466.06;;;3.49;100.00
26978;BME280;56314;48.088;11.642;2024-01-06T11:14:41;94470.50;;;3.47;100.00
26978;BME280;56314;48.088;11.642;2024-01-06T11:17:07;94464.50;;;3.46;100.00
26978;BME280;56314;48.088;11.642;2024-01-06T11:24:51;94471.13;;;3.50;100.00
26978;BME280;56314;48.088;11.642;2024-01-06T11:27:22;94465.25;;;3.48;100.00
26978;BME280;56314;48.088;11.642;2024-01-06T11:29:48;94462.72;;;3.47;100.00
26978;BME280;56314;48.088;11.642;2024-01-06T11:32:20;94467.16;;;3.45;100.00
26978;BME280;56314;48.088;11.642;2024-01-06T11:34:59;94461.28;;;3.43;100.00
26978;BME280;56314;48.088;11.642;2024-01-06T11:40:10;94457.19;;;3.38;100.00
26978;BME280;56314;48.088;11.642;2024-01-06T11:42:45;94458.75;;;3.41;100.00
26978;BME280;56314;48.088;11.642;2024-01-06T11:45:11;94454.31;;;3.43;100.00
26978;BME280;56314;48.088;11.642;2024-01-06T11:47:36;94450.78;;;3.44;100.00
26978;BME280;56314;48.088;11.642;2024-01-06T11:50:03;94448.19;;;3.44;100.00
26978;BME280;56314;48.088;11.642;2024-01-06T11:52:30;94445.41;;;3.47;100.00
26978;BME280;56314;48.088;11.642;2024-01-06T11:54:56;94439.28;;;3.48;100.00
26978;BME280;56314;48.088;11.642;2024-01-06T11:57:22;94441.31;;;3.43;100.00
26978;BME280;56314;48.088;11.642;2024-01-06T11:59:48;94442.38;;;3.41;100.00
26978;BME280;56314;48.088;11.642;2024-01-06T12:02:17;94433.09;;;3.36;100.00
26978;BME280;56314;48.088;11.642;2024-01-06T12:04:47;94433.84;;;3.38;100.00
26978;BME280;56314;48.088;11.642;2024-01-06T12:07:13;94434.59;;;3.41;100.00
26978;BME280;56314;48.088;11.642;2024-01-06T12:09:40;94433.72;;;3.40;100.00
26978;BME280;56314;48.088;11.642;2024-01-06T12:12:05;94431.06;;;3.42;100.00
26978;BME280;56314;48.088;11.642;2024-01-06T12:14:31;94426.31;;;3.48;100.00
26978;BME280;56314;48.088;11.642;2024-01-06T12:16:58;94423.41;;;3.53;100.00
26978;BME280;56314;48.088;11.642;2024-01-06T12:19:31;94422.84;;;3.48;100.00
26978;BME280;56314;48.088;11.642;2024-01-06T12:21:56;94419.03;;;3.53;100.00
26978;BME280;56314;48.088;11.642;2024-01-06T12:24:22;94422.75;;;3.49;100.00
26978;BME280;56314;48.088;11.642;2024-01-06T12:26:48;94421.38;;;3.44;100.00
26978;BME280;56314;48.088;11.642;2024-01-06T12:29:14;94424.19;;;3.41;100.00
26978;BME280;56314;48.088;11.642;2024-01-06T12:31:40;94426.78;;;3.41;100.00
26978;BME280;56314;48.088;11.642;2024-01-06T12:34:06;94419.19;;;3.37;100.00
26978;BME280;56314;48.088;11.642;2024-01-06T12:36:34;94423.34;;;3.40;100.00
26978;BME280;56314;48.088;11.642;2024-01-06T12:39:00;94424.09;;;3.42;100.00
26978;BME280;56314;48.088;11.642;2024-01-06T12:41:27;94431.31;;;3.37;100.00
26978;BME280;56314;48.088;11.642;2024-01-06T12:43:53;94435.69;;;3.36;100.00
26978;BME280;56314;48.088;11.642;2024-01-06T12:46:18;94434.22;;;3.32;100.00
26978;BME280;56314;48.088;11.642;2024-01-06T12:48:44;94430.25;;;3.27;100.00
26978;BME280;56314;48.088;11.642;2024-01-06T12:51:10;94434.00;;;3.22;100.00